Time;durP1;ratioP1;P1;durP2;ratioP2;P2;SDS_P1;SDS_P2;PMS_P1;PMS_P2;Temp;Humidity;BMP_temperature;BMP_pressure;BME280_temperature;BME280_humidity;BME280_pressure;Samples;Min_cycle;Max_cycle;Signal;HPM_P1;HPM_P2
2023/08/11 00:00:50;;;;;;;3.00;0.63;;;13.10;99.90;;;;;;5089770;28;20065;-68
2023/08/11 00:03:16;;;;;;;1.60;0.98;;;13.00;99.90;;;;;;5062170;28;20039;-68
2023/08/11 00:05:42;;;;;;;1.13;0.90;;;13.00;99.90;;;;;;5081313;28;20424;-68
2023/08/11 00:08:08;;;;;;;1.50;0.90;;;13.00;99.90;;;;;;5051640;27;20039;-68
2023/08/11 00:10:35;;;;;;;0.80;0.80;;;13.00;99.90;;;;;;5032905;28;20115;-68
2023/08/11 00:13:02;;;;;;;1.52;1.10;;;13.00;99.90;;;;;;5046122;28;21346;-68
2023/08/11 00:15:31;;;;;;;0.65;0.65;;;13.00;99.90;;;;;;5074716;28;20069;-68
2023/08/11 00:18:00;;;;;;;0.75;0.75;;;13.00;99.90;;;;;;5018140;28;20028;-68
2023/08/11 00:20:29;;;;;;;3.88;0.95;;;13.00;99.90;;;;;;5069320;28;20050;-68
2023/08/11 00:22:55;;;;;;;1.48;1.10;;;12.90;99.90;;;;;;5081913;28;20055;-70
2023/08/11 00:25:22;;;;;;;1.70;1.05;;;12.80;99.90;;;;;;5090172;28;20118;-72
2023/08/11 00:27:47;;;;;;;1.67;1.10;;;12.70;99.90;;;;;;5086940;28;20107;-72
2023/08/11 00:30:13;;;;;;;1.95;1.30;;;12.70;99.90;;;;;;5084542;28;20664;-74
2023/08/11 00:32:39;;;;;;;1.63;0.90;;;12.70;99.90;;;;;;5045977;28;20110;-74
2023/08/11 00:35:05;;;;;;;1.67;0.90;;;12.70;99.90;;;;;;5085335;28;20132;-74
2023/08/11 00:37:31;;;;;;;1.77;0.70;;;12.70;99.90;;;;;;5089090;28;20030;-74
2023/08/11 00:39:58;;;;;;;2.15;1.10;;;12.70;99.90;;;;;;5087952;28;20020;-73
2023/08/11 00:42:23;;;;;;;2.22;0.95;;;12.70;99.90;;;;;;5084837;28;20047;-74
2023/08/11 00:44:49;;;;;;;4.00;1.40;;;12.80;99.90;;;;;;5071665;27;20120;-69
2023/08/11 00:47:17;;;;;;;4.15;1.02;;;12.90;99.90;;;;;;5073217;28;20138;-70
2023/08/11 00:49:43;;;;;;;3.88;0.90;;;12.80;99.90;;;;;;5086724;28;20506;-70
2023/08/11 00:52:11;;;;;;;1.40;0.70;;;12.80;99.90;;;;;;5089635;28;20031;-70
2023/08/11 00:54:37;;;;;;;1.15;0.80;;;12.80;99.90;;;;;;5090362;28;20408;-70
2023/08/11 00:57:03;;;;;;;0.70;0.70;;;12.90;99.90;;;;;;5082354;28;20039;-70
2023/08/11 00:59:29;;;;;;;2.47;0.80;;;12.80;99.90;;;;;;5086858;28;20023;-70
2023/08/11 01:01:54;;;;;;;0.70;0.70;;;12.70;99.90;;;;;;5079138;28;20038;-69
2023/08/11 01:04:21;;;;;;;1.83;0.88;;;12.70;99.90;;;;;;5087323;28;20522;-70
2023/08/11 01:07:09;;;;;;;0.73;0.70;;;12.60;99.90;;;;;;5086253;28;20035;-70
2023/08/11 01:09:50;;;;;;;3.28;0.77;;;12.70;99.90;;;;;;5082176;28;20084;-70
2023/08/11 01:12:19;;;;;;;4.15;1.60;;;12.60;99.90;;;;;;5062847;28;20039;-70
2023/08/11 01:15:04;;;;;;;0.98;0.85;;;12.60;99.90;;;;;;5088086;28;20020;-70
2023/08/11 01:17:30;;;;;;;0.80;0.80;;;12.60;99.90;;;;;;5071540;28;20028;-70
2023/08/11 01:19:56;;;;;;;1.65;1.02;;;12.60;99.90;;;;;;5072006;28;20472;-69
2023/08/11 01:22:28;;;;;;;1.30;1.20;;;12.60;99.90;;;;;;5086874;28;20139;-69
2023/08/11 01:24:55;;;;;;;1.02;0.90;;;12.60;99.90;;;;;;5089645;28;20016;-70
2023/08/11 01:27:21;;;;;;;4.60;1.67;;;12.60;99.90;;;;;;5086035;28;20123;-70
2023/08/11 01:29:46;;;;;;;0.88;0.88;;;12.50;99.90;;;;;;5088153;28;20080;-70
2023/08/11 01:32:12;;;;;;;0.90;0.90;;;12.40;99.90;;;;;;5083227;28;20043;-70
2023/08/11 01:34:38;;;;;;;1.85;1.17;;;12.40;99.90;;;;;;5087584;28;20034;-70
2023/08/11 01:37:04;;;;;;;1.02;0.93;;;12.40;99.90;;;;;;5088337;28;20032;-70
2023/08/11 01:39:31;;;;;;;1.13;0.82;;;12.40;99.90;;;;;;5088549;28;20038;-70
2023/08/11 01:41:57;;;;;;;1.30;1.20;;;12.40;99.90;;;;;;5079635;28;20063;-70
2023/08/11 01:44:25;;;;;;;1.75;0.80;;;12.50;99.90;;;;;;5077898;28;20047;-70
2023/08/11 01:46:54;;;;;;;1.60;0.90;;;12.50;99.90;;;;;;5086892;28;23829;-69
2023/08/11 01:49:21;;;;;;;4.07;1.13;;;12.50;99.90;;;;;;5087996;28;20165;-70
2023/08/11 01:51:47;;;;;;;1.70;0.80;;;12.40;99.90;;;;;;5090480;28;20036;-69
2023/08/11 01:54:12;;;;;;;3.17;1.10;;;12.40;99.90;;;;;;5087921;28;20020;-70
2023/08/11 01:56:39;;;;;;;1.83;0.73;;;12.40;99.90;;;;;;5087809;28;20028;-70
2023/08/11 01:59:12;;;;;;;2.85;1.15;;;12.30;99.90;;;;;;5082448;28;20146;-70
2023/08/11 02:01:38;;;;;;;0.95;0.90;;;12.30;99.90;;;;;;5086497;28;20046;-69
2023/08/11 02:04:05;;;;;;;2.55;0.68;;;12.20;99.90;;;;;;5073266;28;20028;-69
2023/08/11 02:06:30;;;;;;;1.45;1.10;;;12.10;99.90;;;;;;5078858;28;20094;-72
2023/08/11 02:08:57;;;;;;;1.98;0.90;;;12.10;99.90;;;;;;5083762;28;20594;-70
2023/08/11 02:11:22;;;;;;;0.80;0.80;;;12.10;99.90;;;;;;5089830;28;20084;-70
2023/08/11 02:13:48;;;;;;;2.88;0.80;;;12.20;99.90;;;;;;5086218;28;20499;-70
2023/08/11 02:16:14;;;;;;;1.10;0.90;;;12.20;99.90;;;;;;5092565;28;20067;-69
2023/08/11 02:18:39;;;;;;;1.13;0.90;;;12.20;99.90;;;;;;5093918;27;20055;-70
2023/08/11 02:21:07;;;;;;;2.95;1.00;;;12.10;99.90;;;;;;5090203;28;20031;-70
2023/08/11 02:23:33;;;;;;;2.65;0.90;;;12.10;99.90;;;;;;5092056;28;20519;-69
2023/08/11 02:25:59;;;;;;;1.10;1.00;;;12.10;99.90;;;;;;5085445;28;20055;-69
2023/08/11 02:28:25;;;;;;;1.05;0.88;;;12.10;99.90;;;;;;5090927;28;21169;-70
2023/08/11 02:30:50;;;;;;;3.03;1.08;;;12.10;99.90;;;;;;5090836;28;20044;-70
2023/08/11 02:33:18;;;;;;;1.70;1.00;;;12.10;99.90;;;;;;5096491;28;20034;-70
2023/08/11 02:35:44;;;;;;;1.42;1.15;;;12.10;99.90;;;;;;5092209;28;20044;-69
2023/08/11 02:38:10;;;;;;;1.50;1.13;;;12.10;99.90;;;;;;5094596;28;20015;-69
2023/08/11 02:40:35;;;;;;;2.42;1.10;;;12.10;99.90;;;;;;5084142;28;20428;-70
2023/08/11 02:43:02;;;;;;;0.80;0.80;;;12.10;99.90;;;;;;5061626;28;20055;-71
2023/08/11 02:45:27;;;;;;;4.00;0.90;;;12.00;99.90;;;;;;5064895;28;20031;-72
2023/08/11 02:47:53;;;;;;;1.10;0.80;;;12.00;99.90;;;;;;5051104;28;20040;-72
2023/08/11 02:50:19;;;;;;;0.93;0.75;;;12.00;99.90;;;;;;5075613;28;20028;-75
2023/08/11 02:52:44;;;;;;;3.35;0.90;;;12.00;99.90;;;;;;5074046;28;20035;-75
2023/08/11 02:55:11;;;;;;;1.27;1.17;;;11.90;99.90;;;;;;5072077;28;20016;-75
2023/08/11 02:57:37;;;;;;;1.80;1.00;;;11.90;99.90;;;;;;5068530;28;20151;-75
2023/08/11 03:00:13;;;;;;;2.05;1.00;;;11.90;99.90;;;;;;5067893;28;20031;-75
2023/08/11 03:02:42;;;;;;;1.73;1.00;;;11.90;99.90;;;;;;5060948;28;20459;-75
2023/08/11 03:05:09;;;;;;;1.25;1.15;;;11.80;99.90;;;;;;5064657;28;20024;-75
2023/08/11 03:07:36;;;;;;;3.10;1.20;;;11.70;99.90;;;;;;5070705;28;20097;-70
2023/08/11 03:10:03;;;;;;;1.17;1.08;;;11.70;99.90;;;;;;5066246;28;20039;-71
2023/08/11 03:12:28;;;;;;;1.30;1.00;;;11.70;99.90;;;;;;5061273;28;20025;-71
2023/08/11 03:14:54;;;;;;;2.47;0.77;;;11.70;99.90;;;;;;5059916;28;20038;-70
2023/08/11 03:17:20;;;;;;;0.65;0.65;;;11.80;99.90;;;;;;5059836;28;20118;-71
2023/08/11 03:19:46;;;;;;;0.70;0.57;;;11.70;99.90;;;;;;5058882;28;20032;-71
2023/08/11 03:22:13;;;;;;;1.00;0.90;;;11.70;99.90;;;;;;5071685;28;20051;-71
2023/08/11 03:24:39;;;;;;;0.80;0.80;;;11.70;99.90;;;;;;5068106;28;20020;-71
2023/08/11 03:27:06;;;;;;;3.08;0.90;;;11.60;99.90;;;;;;5069343;28;20040;-71
2023/08/11 03:29:31;;;;;;;1.25;1.00;;;11.60;99.90;;;;;;5067987;28;20020;-71
2023/08/11 03:31:57;;;;;;;1.02;1.02;;;11.70;99.90;;;;;;5061981;28;20052;-71
2023/08/11 03:34:23;;;;;;;2.92;0.88;;;11.70;99.90;;;;;;5068187;28;20444;-71
2023/08/11 03:36:48;;;;;;;0.88;0.80;;;11.70;99.90;;;;;;5066260;28;20104;-71
2023/08/11 03:39:14;;;;;;;1.27;1.17;;;11.70;99.90;;;;;;5067562;28;20107;-71
2023/08/11 03:41:39;;;;;;;0.90;0.90;;;11.70;99.90;;;;;;5076952;28;20191;-71
2023/08/11 03:44:05;;;;;;;1.20;1.10;;;11.70;99.90;;;;;;5070782;28;20225;-71
2023/08/11 03:46:31;;;;;;;2.00;0.88;;;11.60;99.90;;;;;;5079760;28;20047;-71
2023/08/11 03:48:57;;;;;;;2.72;1.02;;;11.60;99.90;;;;;;5086659;28;20130;-71
2023/08/11 03:51:22;;;;;;;0.90;0.90;;;11.60;99.90;;;;;;5088212;28;20023;-71
2023/08/11 03:53:48;;;;;;;2.63;1.13;;;11.50;99.90;;;;;;5088725;28;20130;-71
2023/08/11 03:56:14;;;;;;;4.32;1.10;;;11.50;99.90;;;;;;5072346;28;20103;-71
2023/08/11 03:58:39;;;;;;;1.20;1.05;;;11.50;99.90;;;;;;5074315;28;20531;-71
2023/08/11 04:01:05;;;;;;;1.58;1.00;;;11.50;99.90;;;;;;5083178;28;20028;-71
2023/08/11 04:03:31;;;;;;;1.48;0.90;;;11.50;99.90;;;;;;5087473;28;20658;-71
2023/08/11 04:06:01;;;;;;;0.90;0.73;;;11.50;99.90;;;;;;5084949;28;20044;-71
2023/08/11 04:08:27;;;;;;;1.23;0.75;;;11.60;99.90;;;;;;5075264;28;20046;-71
2023/08/11 04:10:54;;;;;;;1.17;0.90;;;11.60;99.90;;;;;;5083365;28;20497;-71
2023/08/11 04:13:19;;;;;;;2.17;0.95;;;11.60;99.90;;;;;;5084081;28;20055;-71
2023/08/11 04:15:49;;;;;;;1.98;1.10;;;11.60;99.90;;;;;;5086397;28;20122;-71
2023/08/11 04:18:14;;;;;;;1.17;0.90;;;11.60;99.90;;;;;;5080687;28;20032;-70
2023/08/11 04:20:40;;;;;;;2.55;1.10;;;11.70;99.90;;;;;;5090818;28;20050;-71
2023/08/11 04:23:06;;;;;;;1.27;1.00;;;11.80;99.90;;;;;;5084938;28;20745;-70
2023/08/11 04:25:32;;;;;;;3.55;1.02;;;11.80;99.90;;;;;;5080726;28;20050;-71
2023/08/11 04:27:59;;;;;;;0.90;0.90;;;11.80;99.90;;;;;;5080450;27;20028;-71
2023/08/11 04:30:25;;;;;;;1.25;0.90;;;11.90;99.90;;;;;;5075399;28;20058;-71
2023/08/11 04:32:51;;;;;;;1.25;0.65;;;12.00;99.90;;;;;;5086493;28;20115;-71
2023/08/11 04:35:17;;;;;;;1.50;1.10;;;12.10;99.90;;;;;;5087234;28;20024;-71
2023/08/11 04:37:43;;;;;;;2.25;1.08;;;12.10;99.90;;;;;;5089454;28;20077;-71
2023/08/11 04:40:10;;;;;;;1.63;1.17;;;12.20;99.90;;;;;;5081217;28;20023;-71
2023/08/11 04:42:42;;;;;;;1.38;1.27;;;12.20;99.90;;;;;;5082072;28;20144;-71
2023/08/11 04:45:12;;;;;;;;;;;12.30;99.90;;;;;;5078643;28;20040;-71
2023/08/11 04:47:40;;;;;;;1.10;1.00;;;12.40;99.90;;;;;;5086412;28;19920;-71
2023/08/11 04:50:07;;;;;;;2.17;1.23;;;12.50;99.90;;;;;;5084981;28;20026;-71
2023/08/11 04:52:33;;;;;;;1.23;1.13;;;12.60;99.90;;;;;;5088869;28;20089;-71
2023/08/11 04:54:59;;;;;;;1.40;0.95;;;12.70;99.90;;;;;;5088531;28;20786;-71
2023/08/11 04:57:24;;;;;;;2.53;1.17;;;12.80;99.90;;;;;;5082907;28;20032;-71
2023/08/11 04:59:50;;;;;;;1.23;1.13;;;13.00;99.90;;;;;;5085859;28;20036;-71
2023/08/11 05:02:16;;;;;;;3.67;1.70;;;13.00;99.90;;;;;;5081626;28;20031;-71
2023/08/11 05:04:41;;;;;;;2.75;1.30;;;13.20;99.90;;;;;;5082684;28;20035;-71
2023/08/11 05:07:07;;;;;;;2.70;1.40;;;13.30;99.90;;;;;;5088470;28;20039;-71
2023/08/11 05:09:35;;;;;;;1.42;1.33;;;13.30;99.90;;;;;;5086871;28;20474;-71
2023/08/11 05:12:01;;;;;;;1.15;1.10;;;13.40;99.90;;;;;;5081071;28;20039;-70
2023/08/11 05:14:27;;;;;;;2.95;1.40;;;13.60;99.90;;;;;;5076585;28;20016;-71
2023/08/11 05:16:53;;;;;;;2.25;1.25;;;13.80;99.90;;;;;;5054526;28;20032;-72
2023/08/11 05:19:18;;;;;;;1.90;1.35;;;13.90;99.90;;;;;;5089487;28;20111;-71
2023/08/11 05:21:44;;;;;;;3.63;1.63;;;14.10;99.90;;;;;;5086717;28;20100;-71
2023/08/11 05:24:10;;;;;;;1.73;1.25;;;14.30;99.90;;;;;;5086609;28;20031;-71
2023/08/11 05:26:36;;;;;;;1.73;1.30;;;14.40;99.90;;;;;;5084551;28;20043;-71
2023/08/11 05:29:02;;;;;;;1.50;1.30;;;14.60;99.90;;;;;;5046599;28;20032;-71
2023/08/11 05:31:28;;;;;;;1.77;1.40;;;14.70;99.90;;;;;;5082467;28;20039;-71
2023/08/11 05:33:54;;;;;;;0.90;0.90;;;14.90;99.90;;;;;;5085300;28;20052;-71
2023/08/11 05:36:20;;;;;;;2.30;1.52;;;15.00;99.90;;;;;;5082842;28;20051;-71
2023/08/11 05:38:46;;;;;;;6.38;1.55;;;15.10;99.90;;;;;;5075405;28;20360;-71
2023/08/11 05:41:12;;;;;;;6.05;1.50;;;15.20;99.90;;;;;;5078694;28;20039;-71
2023/08/11 05:43:38;;;;;;;6.68;1.52;;;15.40;99.90;;;;;;5080564;28;20033;-71
2023/08/11 05:46:06;;;;;;;1.38;1.27;;;15.50;99.90;;;;;;5088542;28;20047;-71
2023/08/11 05:48:33;;;;;;;1.20;1.10;;;15.70;99.90;;;;;;5070347;28;20030;-71
2023/08/11 05:50:59;;;;;;;2.75;1.60;;;15.80;99.90;;;;;;5088009;28;20111;-71
2023/08/11 05:53:25;;;;;;;1.30;1.20;;;16.00;99.90;;;;;;5096024;28;20767;-71
2023/08/11 05:55:50;;;;;;;2.85;1.45;;;16.10;99.90;;;;;;5087293;28;20497;-71
2023/08/11 05:58:16;;;;;;;2.20;1.20;;;16.20;99.90;;;;;;5093975;28;20043;-71
2023/08/11 06:00:42;;;;;;;1.60;1.50;;;16.30;99.90;;;;;;5091518;28;20222;-71
2023/08/11 06:03:07;;;;;;;2.95;1.40;;;16.40;99.90;;;;;;5091201;28;20035;-70
2023/08/11 06:05:33;;;;;;;2.92;1.42;;;16.50;99.90;;;;;;5091980;28;20118;-71
2023/08/11 06:07:58;;;;;;;1.70;1.58;;;16.50;99.90;;;;;;5093775;28;20076;-71
2023/08/11 06:10:26;;;;;;;2.25;1.30;;;16.60;99.90;;;;;;5091791;28;20573;-71
2023/08/11 06:12:52;;;;;;;2.58;1.38;;;16.80;99.90;;;;;;5095084;28;20028;-71
2023/08/11 06:15:17;;;;;;;1.50;1.40;;;16.90;99.90;;;;;;5088898;28;20024;-71
2023/08/11 06:17:49;;;;;;;2.90;2.45;;;17.00;99.90;;;;;;5090069;27;21941;-70
2023/08/11 06:20:15;;;;;;;1.73;1.30;;;17.20;99.90;;;;;;5094089;27;20127;-70
2023/08/11 06:22:41;;;;;;;2.10;1.60;;;17.30;99.90;;;;;;5092893;28;20046;-70
2023/08/11 06:25:07;;;;;;;2.28;1.60;;;17.50;99.90;;;;;;5090169;28;20028;-70
2023/08/11 06:27:33;;;;;;;1.30;1.20;;;17.70;99.90;;;;;;5087384;27;20040;-70
2023/08/11 06:29:58;;;;;;;1.58;1.33;;;17.80;99.90;;;;;;5095830;28;20042;-72
2023/08/11 06:32:24;;;;;;;3.20;1.38;;;17.90;99.90;;;;;;5089369;28;20734;-73
2023/08/11 06:34:49;;;;;;;9.73;1.48;;;17.90;99.90;;;;;;5083537;28;20023;-72
2023/08/11 06:37:16;;;;;;;3.92;1.50;;;18.10;99.90;;;;;;5088760;27;20059;-72
2023/08/11 06:39:42;;;;;;;1.48;1.30;;;18.30;99.90;;;;;;5087786;28;20108;-73
2023/08/11 06:42:08;;;;;;;1.63;1.40;;;18.40;99.90;;;;;;5084821;28;20043;-73
2023/08/11 06:44:33;;;;;;;1.75;1.40;;;18.50;99.90;;;;;;5088633;28;20038;-73
2023/08/11 06:46:59;;;;;;;1.70;1.60;;;18.70;99.90;;;;;;5089244;28;20399;-73
2023/08/11 06:49:24;;;;;;;1.73;1.30;;;18.80;99.90;;;;;;5088690;27;20042;-73
2023/08/11 06:51:50;;;;;;;1.90;1.38;;;18.90;99.90;;;;;;5090816;27;20173;-81
2023/08/11 06:54:16;;;;;;;2.78;1.52;;;19.00;99.90;;;;;;5074660;27;20019;-74
2023/08/11 06:56:41;;;;;;;2.08;1.60;;;19.10;99.90;;;;;;5043305;27;20498;-73
2023/08/11 06:59:07;;;;;;;1.15;1.02;;;19.20;99.90;;;;;;5079799;28;20101;-73
2023/08/11 07:01:33;;;;;;;1.75;1.60;;;19.30;99.90;;;;;;5081672;28;20335;-72
2023/08/11 07:03:58;;;;;;;2.80;1.55;;;19.40;99.90;;;;;;5081907;28;20046;-71
2023/08/11 07:06:24;;;;;;;3.05;1.73;;;19.50;99.90;;;;;;5077556;27;20039;-73
2023/08/11 07:08:50;;;;;;;1.70;1.58;;;19.60;99.90;;;;;;5082885;28;20031;-72
2023/08/11 07:11:16;;;;;;;1.60;1.48;;;19.80;99.90;;;;;;5087419;28;20036;-71
2023/08/11 07:13:41;;;;;;;1.63;1.50;;;19.90;99.90;;;;;;5058630;28;20032;-71
2023/08/11 07:16:07;;;;;;;1.35;1.25;;;20.00;99.90;;;;;;5078611;28;20032;-72
2023/08/11 07:18:33;;;;;;;1.85;1.67;;;20.20;99.90;;;;;;5089503;28;20576;-71
2023/08/11 07:20:59;;;;;;;1.83;1.48;;;20.30;99.90;;;;;;5080134;28;20058;-72
2023/08/11 07:23:24;;;;;;;7.88;2.53;;;20.30;99.90;;;;;;5081688;28;20030;-81
2023/08/11 07:25:50;;;;;;;5.05;2.47;;;20.30;99.90;;;;;;5070759;28;20223;-72
2023/08/11 07:28:16;;;;;;;2.17;1.70;;;20.30;99.90;;;;;;5068011;28;20024;-70
2023/08/11 07:30:41;;;;;;;3.53;1.85;;;20.40;99.90;;;;;;5078312;28;20032;-70
2023/08/11 07:33:07;;;;;;;1.98;1.60;;;20.50;99.90;;;;;;5057093;28;20027;-72
2023/08/11 07:35:32;;;;;;;2.83;1.50;;;20.60;99.90;;;;;;5085761;28;20659;-74
2023/08/11 07:37:58;;;;;;;3.10;1.50;;;20.70;99.90;;;;;;5077004;28;20260;-74
2023/08/11 07:40:24;;;;;;;2.03;1.58;;;20.80;99.90;;;;;;5074715;28;20051;-73
2023/08/11 07:42:49;;;;;;;3.72;1.80;;;20.90;99.90;;;;;;5084378;28;20020;-78
2023/08/11 07:45:15;;;;;;;13.75;3.08;;;21.00;99.90;;;;;;5078423;28;20039;-74
2023/08/11 07:47:41;;;;;;;5.80;2.17;;;21.10;99.90;;;;;;5081932;28;20077;-76
2023/08/11 07:50:07;;;;;;;4.63;1.80;;;21.30;99.90;;;;;;5086454;27;20461;-76
2023/08/11 07:52:33;;;;;;;5.40;1.75;;;21.30;99.90;;;;;;5080718;28;20028;-75
2023/08/11 07:54:58;;;;;;;3.78;1.65;;;21.40;99.90;;;;;;5086905;28;20592;-73
2023/08/11 07:57:24;;;;;;;2.30;1.55;;;21.50;99.90;;;;;;5081721;28;20031;-73
2023/08/11 07:59:50;;;;;;;2.72;1.50;;;21.60;99.90;;;;;;5059410;28;20059;-72
2023/08/11 08:02:16;;;;;;;2.92;1.77;;;21.60;99.90;;;;;;5083043;28;20036;-72
2023/08/11 08:04:42;;;;;;;2.15;1.67;;;21.60;99.90;;;;;;5067265;28;20030;-73
2023/08/11 08:07:08;;;;;;;2.95;1.50;;;21.70;99.90;;;;;;5070196;28;20047;-73
2023/08/11 08:09:34;;;;;;;3.72;1.50;;;21.70;99.90;;;;;;5073924;28;20027;-74
2023/08/11 08:12:01;;;;;;;2.38;1.60;;;21.70;99.90;;;;;;5078097;28;20027;-72
2023/08/11 08:14:28;;;;;;;4.55;2.40;;;21.70;99.90;;;;;;5072214;28;20863;-70
2023/08/11 08:16:53;;;;;;;6.85;1.80;;;21.80;99.90;;;;;;5061772;28;20567;-71
2023/08/11 08:19:20;;;;;;;4.40;2.00;;;21.80;99.90;;;;;;5077635;28;20177;-70
2023/08/11 08:21:46;;;;;;;3.50;1.50;;;21.90;99.90;;;;;;5087091;28;20032;-70
2023/08/11 08:24:14;;;;;;;3.92;1.98;;;22.00;99.90;;;;;;5073931;28;21211;-70
2023/08/11 08:26:40;;;;;;;4.28;1.70;;;22.00;99.90;;;;;;5079713;28;20035;-70
2023/08/11 08:29:06;;;;;;;4.43;1.60;;;21.90;99.90;;;;;;5068970;28;20039;-70
2023/08/11 08:31:32;;;;;;;2.55;1.73;;;21.90;99.90;;;;;;5070621;28;20035;-69
2023/08/11 08:33:58;;;;;;;1.42;1.33;;;22.00;99.90;;;;;;5064530;28;20028;-70
2023/08/11 08:36:24;;;;;;;4.53;1.85;;;22.00;99.90;;;;;;5076898;28;20040;-70
2023/08/11 08:38:49;;;;;;;2.67;1.40;;;22.00;99.90;;;;;;5084502;28;20078;-70
2023/08/11 08:41:19;;;;;;;2.35;1.63;;;22.00;99.90;;;;;;5077315;28;20159;-70
2023/08/11 08:43:50;;;;;;;1.33;1.23;;;21.90;99.90;;;;;;5054915;28;20035;-70
2023/08/11 08:46:18;;;;;;;5.30;2.17;;;21.90;99.90;;;;;;5080718;28;20484;-70
2023/08/11 08:49:00;;;;;;;2.03;1.50;;;21.90;99.90;;;;;;5083133;28;20038;-70
2023/08/11 08:51:26;;;;;;;1.58;1.33;;;22.10;99.90;;;;;;5083685;28;20491;-68
2023/08/11 08:53:52;;;;;;;3.90;1.45;;;22.10;99.90;;;;;;5078311;28;20081;-70
2023/08/11 08:56:19;;;;;;;2.63;1.88;;;22.10;99.90;;;;;;5087256;27;20111;-69
2023/08/11 08:58:45;;;;;;;1.63;1.52;;;22.10;99.90;;;;;;5080342;28;20026;-70
2023/08/11 09:01:11;;;;;;;2.83;1.60;;;22.20;99.90;;;;;;5078840;28;20028;-70
2023/08/11 09:03:38;;;;;;;2.85;1.70;;;22.40;99.90;;;;;;5074647;28;20335;-70
2023/08/11 09:06:05;;;;;;;1.88;1.63;;;22.50;99.90;;;;;;5075842;28;20059;-69
2023/08/11 09:08:38;;;;;;;3.30;1.73;;;22.50;99.90;;;;;;5078841;28;21662;-70
2023/08/11 09:11:04;;;;;;;2.42;1.95;;;22.60;99.90;;;;;;5062063;28;21258;-71
2023/08/11 09:13:31;;;;;;;6.20;1.60;;;22.60;99.90;;;;;;5081737;28;20024;-70
2023/08/11 09:15:58;;;;;;;2.38;1.63;;;22.70;99.90;;;;;;5088352;28;20031;-69
2023/08/11 09:18:23;;;;;;;1.50;1.40;;;22.60;99.90;;;;;;5081792;28;20746;-70
2023/08/11 09:20:49;;;;;;;2.55;1.30;;;22.70;99.90;;;;;;5088222;27;20038;-70
2023/08/11 09:23:18;;;;;;;1.55;1.25;;;22.80;99.90;;;;;;5084639;28;20030;-70
2023/08/11 09:25:45;;;;;;;1.33;1.23;;;22.90;99.90;;;;;;5084617;28;20043;-70
2023/08/11 09:28:11;;;;;;;1.45;1.20;;;23.00;99.90;;;;;;5069366;28;20019;-71
2023/08/11 09:30:37;;;;;;;1.35;1.25;;;22.90;99.90;;;;;;5084325;28;20024;-70
2023/08/11 09:33:03;;;;;;;3.70;1.27;;;22.90;99.90;;;;;;5087467;27;20023;-70
2023/08/11 09:35:29;;;;;;;1.35;1.25;;;22.90;99.90;;;;;;5080122;28;20028;-70
2023/08/11 09:37:56;;;;;;;1.20;1.10;;;22.90;99.90;;;;;;5084720;28;20043;-70
2023/08/11 09:40:22;;;;;;;2.20;1.50;;;23.00;99.90;;;;;;5070733;28;20040;-70
2023/08/11 09:42:48;;;;;;;2.28;1.10;;;23.00;99.90;;;;;;5076985;28;20027;-70
2023/08/11 09:45:14;;;;;;;1.92;1.10;;;23.10;99.90;;;;;;5077870;28;20027;-70
2023/08/11 09:47:40;;;;;;;1.48;1.38;;;23.20;99.90;;;;;;5085260;28;20639;-70
2023/08/11 09:50:08;;;;;;;2.42;1.25;;;23.30;99.90;;;;;;5050474;28;20035;-70
2023/08/11 09:52:35;;;;;;;2.15;1.10;;;23.40;99.90;;;;;;5075725;28;20031;-70
2023/08/11 09:55:06;;;;;;;2.33;1.35;;;23.50;99.90;;;;;;5059776;28;20015;-71
2023/08/11 09:57:34;;;;;;;1.83;1.23;;;23.50;99.90;;;;;;5060757;28;20024;-80
2023/08/11 10:00:01;;;;;;;1.10;1.00;;;23.60;99.90;;;;;;5074865;28;20027;-78
2023/08/11 10:02:30;;;;;;;1.30;1.20;;;23.60;99.90;;;;;;5088705;28;20031;-79
2023/08/11 10:05:01;;;;;;;1.00;1.00;;;23.70;99.90;;;;;;5060223;28;20026;-80
2023/08/11 10:07:39;;;;;;;1.50;1.40;;;23.70;99.90;;;;;;5088859;28;20062;-80
2023/08/11 10:10:10;;;;;;;1.23;1.10;;;23.70;99.90;;;;;;5087404;28;20032;-80
2023/08/11 10:12:40;;;;;;;1.50;1.30;;;23.60;99.90;;;;;;5087714;28;21117;-79
2023/08/11 10:15:09;;;;;;;1.35;1.20;;;23.50;99.90;;;;;;5072860;28;20032;-80
2023/08/11 10:17:35;;;;;;;2.38;1.17;;;23.50;99.90;;;;;;5084152;28;20026;-80
2023/08/11 10:20:04;;;;;;;1.88;1.25;;;23.40;99.90;;;;;;5084998;28;20584;-79
2023/08/11 10:22:32;;;;;;;1.35;1.10;;;23.30;99.90;;;;;;5087650;28;20032;-78
2023/08/11 10:25:00;;;;;;;0.95;0.90;;;23.30;99.90;;;;;;5081318;28;20028;-79
2023/08/11 10:27:27;;;;;;;1.70;1.10;;;23.20;99.90;;;;;;5084577;28;20032;-80
2023/08/11 10:29:55;;;;;;;0.80;0.80;;;23.30;99.90;;;;;;5091695;28;20016;-80
2023/08/11 10:32:22;;;;;;;1.73;1.05;;;23.40;99.90;;;;;;5086665;28;20602;-80
2023/08/11 10:34:50;;;;;;;1.23;0.95;;;23.50;99.90;;;;;;5086453;28;20044;-79
2023/08/11 10:37:15;;;;;;;0.90;0.90;;;23.60;99.90;;;;;;5082690;28;20122;-79
2023/08/11 10:39:41;;;;;;;2.08;1.05;;;23.60;99.90;;;;;;5091701;28;20172;-80
2023/08/11 10:42:11;;;;;;;1.00;1.00;;;23.80;99.90;;;;;;5092039;28;20048;-80
2023/08/11 10:44:43;;;;;;;3.05;1.10;;;23.90;99.90;;;;;;5087774;28;20476;-80
2023/08/11 10:47:09;;;;;;;;;;;24.00;99.90;;;;;;5095933;28;20031;-80
2023/08/11 10:49:40;;;;;;;0.85;0.80;;;24.10;99.90;;;;;;5087965;28;19926;-81
2023/08/11 10:52:06;;;;;;;2.55;1.00;;;24.20;99.90;;;;;;5089083;28;20038;-78
2023/08/11 10:54:32;;;;;;;1.30;0.90;;;24.20;99.90;;;;;;5095537;28;20039;-80
2023/08/11 10:57:01;;;;;;;0.98;0.93;;;24.20;99.90;;;;;;5088246;28;20028;-80
2023/08/11 10:59:31;;;;;;;1.00;0.90;;;24.30;99.90;;;;;;5094347;28;20023;-79
2023/08/11 11:01:59;;;;;;;5.28;1.33;;;24.30;99.90;;;;;;5070169;28;20160;-80
2023/08/11 11:04:30;;;;;;;1.17;0.80;;;24.30;99.90;;;;;;5086113;27;20476;-79
2023/08/11 11:06:58;;;;;;;1.13;1.00;;;24.40;99.90;;;;;;5092836;28;20755;-80
2023/08/11 11:09:23;;;;;;;0.70;0.70;;;24.40;99.90;;;;;;5094354;28;20490;-80
2023/08/11 11:11:51;;;;;;;0.80;0.70;;;24.50;98.70;;;;;;5085292;28;20039;-79
2023/08/11 11:14:16;;;;;;;2.05;0.73;;;24.50;97.10;;;;;;5092475;28;20034;-80
2023/08/11 11:16:42;;;;;;;1.35;1.00;;;24.50;98.70;;;;;;5083975;28;20047;-79
2023/08/11 11:19:09;;;;;;;1.05;0.82;;;24.60;97.60;;;;;;5075512;28;20039;-79
2023/08/11 11:21:40;;;;;;;0.73;0.73;;;24.60;94.70;;;;;;5091597;28;20081;-78
2023/08/11 11:24:06;;;;;;;1.77;0.73;;;24.70;97.50;;;;;;5073591;28;20168;-79
2023/08/11 11:26:32;;;;;;;1.00;0.77;;;24.80;94.30;;;;;;5092881;28;20127;-80
2023/08/11 11:29:00;;;;;;;1.10;0.75;;;24.70;92.30;;;;;;5091767;28;20547;-79
2023/08/11 11:31:28;;;;;;;0.65;0.65;;;24.70;94.10;;;;;;5094560;28;20092;-79
2023/08/11 11:33:55;;;;;;;1.10;0.93;;;24.80;95.00;;;;;;5093144;27;20028;-79
2023/08/11 11:36:22;;;;;;;0.57;0.55;;;24.90;96.60;;;;;;5088636;28;20392;-79
2023/08/11 11:38:48;;;;;;;0.75;0.75;;;24.90;93.40;;;;;;5089549;28;20020;-80
2023/08/11 11:41:18;;;;;;;1.58;1.00;;;24.90;95.30;;;;;;5090096;28;20115;-79
2023/08/11 11:43:45;;;;;;;0.75;0.75;;;24.90;92.30;;;;;;5088594;28;20669;-78
2023/08/11 11:46:16;;;;;;;1.65;0.70;;;24.70;93.90;;;;;;5088571;28;20028;-78
2023/08/11 11:48:53;;;;;;;1.67;0.95;;;24.80;93.80;;;;;;5093565;28;20038;-79
2023/08/11 11:51:23;;;;;;;2.10;0.70;;;24.90;94.20;;;;;;5090387;28;20027;-78
2023/08/11 11:53:53;;;;;;;0.70;0.68;;;25.00;92.30;;;;;;5076810;28;20119;-79
2023/08/11 11:56:19;;;;;;;2.03;0.90;;;25.00;90.30;;;;;;5095248;28;20042;-79
2023/08/11 11:58:46;;;;;;;0.80;0.80;;;25.00;91.70;;;;;;5079165;28;20399;-79
2023/08/11 12:01:19;;;;;;;0.95;0.82;;;25.00;94.20;;;;;;5081720;28;21350;-79
2023/08/11 12:03:46;;;;;;;6.53;0.90;;;25.10;95.00;;;;;;5088770;28;20036;-79
2023/08/11 12:06:13;;;;;;;1.73;0.90;;;25.10;95.60;;;;;;5080078;28;20070;-80
2023/08/11 12:08:42;;;;;;;1.15;1.05;;;24.90;95.10;;;;;;5081389;28;20063;-78
2023/08/11 12:11:13;;;;;;;1.02;0.70;;;24.70;94.30;;;;;;5086920;28;20027;-80
2023/08/11 12:13:43;;;;;;;2.03;0.95;;;24.70;94.00;;;;;;5089719;28;20047;-80
2023/08/11 12:16:12;;;;;;;1.02;0.88;;;24.80;93.80;;;;;;5092743;28;20034;-80
2023/08/11 12:18:39;;;;;;;1.25;0.98;;;24.90;94.10;;;;;;5091359;28;20603;-80
2023/08/11 12:21:06;;;;;;;2.38;1.10;;;24.80;93.10;;;;;;5084922;28;20030;-80
2023/08/11 12:23:32;;;;;;;1.20;0.77;;;24.50;94.10;;;;;;5084535;28;20564;-80
2023/08/11 12:25:58;;;;;;;0.88;0.80;;;24.30;94.60;;;;;;5092846;28;20031;-79
2023/08/11 12:28:23;;;;;;;1.95;0.90;;;24.30;95.00;;;;;;5085048;28;20048;-79
2023/08/11 12:30:49;;;;;;;2.35;1.00;;;24.50;96.20;;;;;;5093140;28;20053;-79
2023/08/11 12:33:16;;;;;;;0.77;0.73;;;24.70;94.60;;;;;;5089443;28;20038;-79
2023/08/11 12:35:46;;;;;;;1.02;0.93;;;24.80;93.50;;;;;;5085403;28;20024;-77
2023/08/11 12:38:12;;;;;;;1.50;0.80;;;24.90;92.00;;;;;;5088955;28;20700;-80
2023/08/11 12:40:40;;;;;;;1.30;1.20;;;25.00;89.00;;;;;;5093822;28;20047;-79
2023/08/11 12:43:06;;;;;;;1.33;0.80;;;24.90;91.00;;;;;;5086173;28;20036;-79
2023/08/11 12:45:31;;;;;;;2.85;1.00;;;25.00;90.90;;;;;;5079326;28;20068;-81